Clarion, Iowa
Current Conditions -  °F | °C
As of 10:15 AM on Friday 24 Oct 2014 (Local Time) from KCAV Reporting Station
Moderate Fog Moderate Fog  
Wind Chill: 55°   Ceiling: 200
Heat Index: 55°   Visibility: 0mi
Dew Point: 55°   Wind: 14mph
Humidity: 100%   Direction: 180°S
Pressure: 29.92"   Gusts: NA
Location:  42.73°N, 93.73°W
Report Text: KCAV 241515Z AUTO 18012KT M1/4SM FG OVC002 13/13 A2992 RMK AO2
Loading
Personal Weather Stations






























Interactive Weather Map
Tropical Storm Tracking
New forecast layout! Learn more

10-Day Weather Forecast

Advertisements
Track Severe Weather on mobile